TimeCDT,TemperatureF,Dew PointF,Humidity,Sea Level PressureIn,VisibilityMPH,Wind Direction,Wind SpeedMPH,Gust SpeedMPH,PrecipitationIn,Events,Conditions,WindDirDegrees,DateUTC
12:54 AM,15.1,8.1,74,30.11,10.0,Calm,Calm,-,N/A,,Overcast,0,2013-03-23 05:54:00
1:54 AM,18.0,10.0,71,30.11,10.0,Calm,Calm,-,N/A,,Overcast,0,2013-03-23 06:54:00
2:54 AM,18.0,10.9,74,30.09,10.0,Calm,Calm,-,N/A,,Overcast,0,2013-03-23 07:54:00
3:54 AM,16.0,10.9,81,30.09,10.0,ENE,3.5,-,N/A,,Clear,60,2013-03-23 08:54:00
4:54 AM,15.1,10.0,80,30.09,10.0,NE,4.6,-,N/A,,Clear,50,2013-03-23 09:54:00
5:54 AM,19.0,14.0,81,30.10,10.0,Calm,Calm,-,N/A,,Clear,0,2013-03-23 10:54:00
6:54 AM,15.1,10.9,84,30.14,10.0,NW,3.5,-,N/A,,Mostly Cloudy,320,2013-03-23 11:54:00
7:54 AM,16.0,10.9,81,30.16,8.0,NW,4.6,-,N/A,,Overcast,310,2013-03-23 12:54:00
8:54 AM,19.9,14.0,78,30.15,10.0,Calm,Calm,-,N/A,,Mostly Cloudy,0,2013-03-23 13:54:00
9:54 AM,25.0,15.1,66,30.17,10.0,Calm,Calm,-,N/A,,Partly Cloudy,0,2013-03-23 14:54:00
10:54 AM,28.9,18.0,64,30.16,10.0,East,6.9,-,N/A,,Clear,80,2013-03-23 15:54:00
11:54 AM,30.9,19.0,61,30.16,10.0,ENE,5.8,-,N/A,,Clear,60,2013-03-23 16:54:00
12:54 PM,33.1,19.0,56,30.15,10.0,NE,4.6,-,N/A,,Clear,40,2013-03-23 17:54:00
1:54 PM,33.1,19.9,59,30.14,10.0,East,4.6,-,N/A,,Scattered Clouds,80,2013-03-23 18:54:00
2:54 PM,35.1,19.0,52,30.13,10.0,Calm,Calm,-,N/A,,Partly Cloudy,0,2013-03-23 19:54:00
3:54 PM,34.0,19.0,54,30.12,10.0,ENE,6.9,-,N/A,,Clear,70,2013-03-23 20:54:00
4:54 PM,34.0,19.0,54,30.11,10.0,East,5.8,-,N/A,,Clear,80,2013-03-23 21:54:00
5:54 PM,33.1,18.0,54,30.10,10.0,ENE,4.6,-,N/A,,Clear,70,2013-03-23 22:54:00
6:54 PM,33.1,19.0,56,30.10,10.0,NNE,3.5,-,N/A,,Clear,20,2013-03-23 23:54:00
7:54 PM,30.9,18.0,59,30.11,10.0,North,3.5,-,N/A,,Clear,10,2013-03-24 00:54:00
8:54 PM,28.0,18.0,66,30.12,10.0,East,6.9,-,N/A,,Clear,100,2013-03-24 01:54:00
9:54 PM,28.0,18.0,66,30.13,10.0,SE,3.5,-,N/A,,Clear,130,2013-03-24 02:54:00
10:54 PM,28.0,19.0,69,30.12,10.0,Calm,Calm,-,N/A,,Overcast,0,2013-03-24 03:54:00
11:54 PM,28.0,19.9,72,30.12,10.0,Calm,Calm,-,N/A,,Overcast,0,2013-03-24 04:54:00